sensor_id;sensor_type;location;lat;lon;timestamp;P1;durP1;ratioP1;P2;durP2;ratioP2
32038;SDS011;18549;42.286;22.688;2023-05-07T00:00:19;9.55;;;6.37;;
32038;SDS011;18549;42.286;22.688;2023-05-07T00:02:46;9.98;;;5.87;;
32038;SDS011;18549;42.286;22.688;2023-05-07T00:05:13;8.57;;;6.43;;
32038;SDS011;18549;42.286;22.688;2023-05-07T00:07:41;12.83;;;6.27;;
32038;SDS011;18549;42.286;22.688;2023-05-07T00:10:08;9.85;;;5.03;;
32038;SDS011;18549;42.286;22.688;2023-05-07T00:12:37;7.55;;;5.18;;
32038;SDS011;18549;42.286;22.688;2023-05-07T00:15:04;7.30;;;6.07;;
32038;SDS011;18549;42.286;22.688;2023-05-07T00:17:35;9.70;;;5.90;;
32038;SDS011;18549;42.286;22.688;2023-05-07T00:20:02;10.50;;;6.20;;
32038;SDS011;18549;42.286;22.688;2023-05-07T00:22:30;12.37;;;5.67;;
32038;SDS011;18549;42.286;22.688;2023-05-07T00:24:58;10.73;;;4.40;;
32038;SDS011;18549;42.286;22.688;2023-05-07T00:27:25;11.35;;;5.95;;
32038;SDS011;18549;42.286;22.688;2023-05-07T00:29:53;6.27;;;4.57;;
32038;SDS011;18549;42.286;22.688;2023-05-07T00:32:20;4.47;;;3.78;;
32038;SDS011;18549;42.286;22.688;2023-05-07T00:34:49;7.87;;;4.67;;
32038;SDS011;18549;42.286;22.688;2023-05-07T00:37:16;4.85;;;4.35;;
32038;SDS011;18549;42.286;22.688;2023-05-07T00:39:43;6.93;;;4.43;;
32038;SDS011;18549;42.286;22.688;2023-05-07T00:42:10;5.82;;;4.37;;
32038;SDS011;18549;42.286;22.688;2023-05-07T00:44:39;6.62;;;5.10;;
32038;SDS011;18549;42.286;22.688;2023-05-07T00:47:07;5.32;;;4.47;;
32038;SDS011;18549;42.286;22.688;2023-05-07T00:49:35;6.73;;;5.23;;
32038;SDS011;18549;42.286;22.688;2023-05-07T00:52:07;8.13;;;5.97;;
32038;SDS011;18549;42.286;22.688;2023-05-07T00:54:36;7.73;;;5.00;;
32038;SDS011;18549;42.286;22.688;2023-05-07T00:57:04;10.83;;;5.10;;
32038;SDS011;18549;42.286;22.688;2023-05-07T00:59:31;9.63;;;5.63;;
32038;SDS011;18549;42.286;22.688;2023-05-07T01:02:01;21.77;;;5.93;;
32038;SDS011;18549;42.286;22.688;2023-05-07T01:04:28;6.30;;;5.18;;
32038;SDS011;18549;42.286;22.688;2023-05-07T01:06:55;7.70;;;5.87;;
32038;SDS011;18549;42.286;22.688;2023-05-07T01:09:27;7.78;;;5.82;;
32038;SDS011;18549;42.286;22.688;2023-05-07T01:11:55;12.50;;;5.85;;
32038;SDS011;18549;42.286;22.688;2023-05-07T01:14:24;10.90;;;5.90;;
32038;SDS011;18549;42.286;22.688;2023-05-07T01:16:51;12.52;;;6.62;;
32038;SDS011;18549;42.286;22.688;2023-05-07T01:19:19;9.13;;;6.03;;
32038;SDS011;18549;42.286;22.688;2023-05-07T01:21:47;7.85;;;6.12;;
32038;SDS011;18549;42.286;22.688;2023-05-07T01:24:16;21.50;;;7.77;;
32038;SDS011;18549;42.286;22.688;2023-05-07T01:26:44;11.05;;;6.95;;
32038;SDS011;18549;42.286;22.688;2023-05-07T01:29:11;14.60;;;8.27;;
32038;SDS011;18549;42.286;22.688;2023-05-07T01:31:40;13.47;;;7.60;;
32038;SDS011;18549;42.286;22.688;2023-05-07T01:34:11;12.55;;;5.85;;
32038;SDS011;18549;42.286;22.688;2023-05-07T01:36:42;10.15;;;5.25;;
32038;SDS011;18549;42.286;22.688;2023-05-07T01:39:10;6.63;;;4.50;;
32038;SDS011;18549;42.286;22.688;2023-05-07T01:41:40;4.90;;;4.40;;
32038;SDS011;18549;42.286;22.688;2023-05-07T01:44:07;9.63;;;4.70;;
32038;SDS011;18549;42.286;22.688;2023-05-07T01:46:35;8.00;;;4.30;;
32038;SDS011;18549;42.286;22.688;2023-05-07T01:49:02;11.50;;;5.15;;
32038;SDS011;18549;42.286;22.688;2023-05-07T01:51:29;11.73;;;4.77;;
32038;SDS011;18549;42.286;22.688;2023-05-07T01:53:58;7.27;;;4.47;;
32038;SDS011;18549;42.286;22.688;2023-05-07T01:56:25;7.47;;;4.90;;
32038;SDS011;18549;42.286;22.688;2023-05-07T01:58:54;9.00;;;5.80;;
32038;SDS011;18549;42.286;22.688;2023-05-07T02:01:20;9.17;;;5.67;;
32038;SDS011;18549;42.286;22.688;2023-05-07T02:03:47;8.30;;;6.00;;
32038;SDS011;18549;42.286;22.688;2023-05-07T02:06:16;12.50;;;6.43;;
32038;SDS011;18549;42.286;22.688;2023-05-07T02:08:47;11.77;;;6.67;;
32038;SDS011;18549;42.286;22.688;2023-05-07T02:11:16;13.27;;;6.50;;
32038;SDS011;18549;42.286;22.688;2023-05-07T02:13:43;7.73;;;5.90;;
32038;SDS011;18549;42.286;22.688;2023-05-07T02:16:12;16.17;;;7.70;;
32038;SDS011;18549;42.286;22.688;2023-05-07T02:18:39;10.30;;;6.10;;
32038;SDS011;18549;42.286;22.688;2023-05-07T02:21:06;8.23;;;6.33;;
32038;SDS011;18549;42.286;22.688;2023-05-07T02:23:33;9.70;;;6.20;;
32038;SDS011;18549;42.286;22.688;2023-05-07T02:26:00;13.30;;;5.60;;
32038;SDS011;18549;42.286;22.688;2023-05-07T02:28:28;8.57;;;6.53;;
32038;SDS011;18549;42.286;22.688;2023-05-07T02:30:55;8.57;;;6.68;;
32038;SDS011;18549;42.286;22.688;2023-05-07T02:33:25;13.60;;;7.80;;
32038;SDS011;18549;42.286;22.688;2023-05-07T02:35:52;9.00;;;6.53;;
32038;SDS011;18549;42.286;22.688;2023-05-07T02:38:19;11.40;;;7.03;;
32038;SDS011;18549;42.286;22.688;2023-05-07T02:40:47;17.73;;;7.20;;
32038;SDS011;18549;42.286;22.688;2023-05-07T02:43:15;15.00;;;7.13;;
32038;SDS011;18549;42.286;22.688;2023-05-07T02:45:45;15.43;;;7.73;;
32038;SDS011;18549;42.286;22.688;2023-05-07T02:48:12;7.70;;;6.07;;
32038;SDS011;18549;42.286;22.688;2023-05-07T02:50:41;8.23;;;6.13;;
32038;SDS011;18549;42.286;22.688;2023-05-07T02:53:14;8.20;;;6.03;;
32038;SDS011;18549;42.286;22.688;2023-05-07T02:55:42;9.20;;;6.77;;
32038;SDS011;18549;42.286;22.688;2023-05-07T02:58:09;14.73;;;7.07;;
32038;SDS011;18549;42.286;22.688;2023-05-07T03:00:36;8.43;;;6.67;;
32038;SDS011;18549;42.286;22.688;2023-05-07T03:03:05;10.77;;;6.87;;
32038;SDS011;18549;42.286;22.688;2023-05-07T03:05:36;7.70;;;6.03;;
32038;SDS011;18549;42.286;22.688;2023-05-07T03:08:04;10.48;;;7.18;;
32038;SDS011;18549;42.286;22.688;2023-05-07T03:10:32;14.03;;;7.63;;
32038;SDS011;18549;42.286;22.688;2023-05-07T03:13:00;16.83;;;8.17;;
32038;SDS011;18549;42.286;22.688;2023-05-07T03:15:27;8.67;;;6.47;;
32038;SDS011;18549;42.286;22.688;2023-05-07T03:17:54;9.27;;;7.17;;
32038;SDS011;18549;42.286;22.688;2023-05-07T03:20:21;8.80;;;6.23;;
32038;SDS011;18549;42.286;22.688;2023-05-07T03:22:48;12.93;;;6.50;;
32038;SDS011;18549;42.286;22.688;2023-05-07T03:25:17;8.33;;;6.40;;
32038;SDS011;18549;42.286;22.688;2023-05-07T03:27:44;14.43;;;6.13;;
32038;SDS011;18549;42.286;22.688;2023-05-07T03:30:12;12.40;;;6.30;;
32038;SDS011;18549;42.286;22.688;2023-05-07T03:32:40;10.93;;;6.37;;
32038;SDS011;18549;42.286;22.688;2023-05-07T03:35:08;9.07;;;6.00;;
32038;SDS011;18549;42.286;22.688;2023-05-07T03:37:35;10.20;;;6.10;;
32038;SDS011;18549;42.286;22.688;2023-05-07T03:40:02;12.90;;;6.47;;
32038;SDS011;18549;42.286;22.688;2023-05-07T03:42:31;9.37;;;6.27;;
32038;SDS011;18549;42.286;22.688;2023-05-07T03:44:59;15.40;;;6.77;;
32038;SDS011;18549;42.286;22.688;2023-05-07T03:47:26;15.50;;;7.40;;
32038;SDS011;18549;42.286;22.688;2023-05-07T03:49:53;12.13;;;6.70;;
32038;SDS011;18549;42.286;22.688;2023-05-07T03:52:20;12.27;;;7.00;;
32038;SDS011;18549;42.286;22.688;2023-05-07T03:54:50;9.00;;;5.80;;
32038;SDS011;18549;42.286;22.688;2023-05-07T03:57:18;10.23;;;5.37;;
32038;SDS011;18549;42.286;22.688;2023-05-07T03:59:46;6.63;;;5.80;;
32038;SDS011;18549;42.286;22.688;2023-05-07T04:02:13;9.37;;;6.53;;
32038;SDS011;18549;42.286;22.688;2023-05-07T04:04:40;8.40;;;6.90;;
32038;SDS011;18549;42.286;22.688;2023-05-07T04:07:07;16.90;;;7.13;;
32038;SDS011;18549;42.286;22.688;2023-05-07T04:09:36;11.00;;;7.93;;
32038;SDS011;18549;42.286;22.688;2023-05-07T04:12:03;13.43;;;7.90;;
32038;SDS011;18549;42.286;22.688;2023-05-07T04:14:31;12.43;;;7.87;;
32038;SDS011;18549;42.286;22.688;2023-05-07T04:17:00;10.07;;;7.63;;
32038;SDS011;18549;42.286;22.688;2023-05-07T04:19:27;11.20;;;7.30;;
32038;SDS011;18549;42.286;22.688;2023-05-07T04:21:55;12.33;;;7.73;;
32038;SDS011;18549;42.286;22.688;2023-05-07T04:24:22;18.70;;;8.60;;
32038;SDS011;18549;42.286;22.688;2023-05-07T04:26:50;10.77;;;7.23;;
32038;SDS011;18549;42.286;22.688;2023-05-07T04:29:17;9.63;;;7.30;;
32038;SDS011;18549;42.286;22.688;2023-05-07T04:31:45;10.43;;;7.80;;
32038;SDS011;18549;42.286;22.688;2023-05-07T04:34:13;14.17;;;7.40;;
32038;SDS011;18549;42.286;22.688;2023-05-07T04:36:40;8.23;;;6.17;;
32038;SDS011;18549;42.286;22.688;2023-05-07T04:39:08;14.23;;;6.40;;
32038;SDS011;18549;42.286;22.688;2023-05-07T04:41:35;7.60;;;6.07;;
32038;SDS011;18549;42.286;22.688;2023-05-07T04:44:03;8.17;;;6.47;;
32038;SDS011;18549;42.286;22.688;2023-05-07T04:46:31;7.73;;;5.77;;
32038;SDS011;18549;42.286;22.688;2023-05-07T04:48:59;13.37;;;7.03;;
32038;SDS011;18549;42.286;22.688;2023-05-07T04:51:27;11.20;;;7.63;;
32038;SDS011;18549;42.286;22.688;2023-05-07T04:53:54;19.13;;;8.90;;
32038;SDS011;18549;42.286;22.688;2023-05-07T04:56:21;15.93;;;8.53;;
32038;SDS011;18549;42.286;22.688;2023-05-07T04:58:48;15.13;;;8.10;;
32038;SDS011;18549;42.286;22.688;2023-05-07T05:01:16;12.43;;;7.23;;
32038;SDS011;18549;42.286;22.688;2023-05-07T05:03:43;14.23;;;8.30;;
32038;SDS011;18549;42.286;22.688;2023-05-07T05:06:10;16.57;;;8.67;;
32038;SDS011;18549;42.286;22.688;2023-05-07T05:08:40;15.43;;;6.70;;
32038;SDS011;18549;42.286;22.688;2023-05-07T05:11:07;14.23;;;5.60;;
32038;SDS011;18549;42.286;22.688;2023-05-07T05:13:34;9.67;;;6.80;;
32038;SDS011;18549;42.286;22.688;2023-05-07T05:16:01;8.80;;;6.00;;
32038;SDS011;18549;42.286;22.688;2023-05-07T05:18:29;14.93;;;7.00;;
32038;SDS011;18549;42.286;22.688;2023-05-07T05:20:56;11.90;;;6.63;;
32038;SDS011;18549;42.286;22.688;2023-05-07T05:23:23;8.60;;;6.83;;
32038;SDS011;18549;42.286;22.688;2023-05-07T05:25:56;10.90;;;6.63;;
32038;SDS011;18549;42.286;22.688;2023-05-07T05:28:23;10.13;;;6.07;;
32038;SDS011;18549;42.286;22.688;2023-05-07T05:30:50;10.13;;;6.37;;
32038;SDS011;18549;42.286;22.688;2023-05-07T05:33:19;8.43;;;5.47;;
32038;SDS011;18549;42.286;22.688;2023-05-07T05:35:49;7.63;;;5.60;;
32038;SDS011;18549;42.286;22.688;2023-05-07T05:38:16;12.27;;;5.60;;
32038;SDS011;18549;42.286;22.688;2023-05-07T05:40:43;8.77;;;5.53;;
32038;SDS011;18549;42.286;22.688;2023-05-07T05:43:12;9.13;;;5.43;;
32038;SDS011;18549;42.286;22.688;2023-05-07T05:45:40;8.57;;;5.90;;
32038;SDS011;18549;42.286;22.688;2023-05-07T05:48:08;10.57;;;6.22;;
32038;SDS011;18549;42.286;22.688;2023-05-07T05:50:35;8.53;;;5.97;;
32038;SDS011;18549;42.286;22.688;2023-05-07T05:53:02;8.33;;;6.33;;
32038;SDS011;18549;42.286;22.688;2023-05-07T05:55:30;8.13;;;6.53;;
32038;SDS011;18549;42.286;22.688;2023-05-07T05:57:59;7.05;;;6.10;;
32038;SDS011;18549;42.286;22.688;2023-05-07T06:00:27;6.30;;;5.03;;
32038;SDS011;18549;42.286;22.688;2023-05-07T06:02:55;8.43;;;6.60;;
32038;SDS011;18549;42.286;22.688;2023-05-07T06:05:22;7.82;;;6.10;;
32038;SDS011;18549;42.286;22.688;2023-05-07T06:07:49;10.20;;;6.30;;
32038;SDS011;18549;42.286;22.688;2023-05-07T06:10:16;8.47;;;6.27;;
32038;SDS011;18549;42.286;22.688;2023-05-07T06:12:43;8.23;;;6.23;;
32038;SDS011;18549;42.286;22.688;2023-05-07T06:15:10;12.07;;;6.93;;
32038;SDS011;18549;42.286;22.688;2023-05-07T06:17:39;10.43;;;6.97;;
32038;SDS011;18549;42.286;22.688;2023-05-07T06:20:07;11.20;;;6.43;;
32038;SDS011;18549;42.286;22.688;2023-05-07T06:22:34;10.83;;;5.67;;
32038;SDS011;18549;42.286;22.688;2023-05-07T06:25:01;9.17;;;5.60;;
32038;SDS011;18549;42.286;22.688;2023-05-07T06:27:29;8.18;;;5.95;;
32038;SDS011;18549;42.286;22.688;2023-05-07T06:29:57;8.55;;;5.07;;
32038;SDS011;18549;42.286;22.688;2023-05-07T06:32:24;9.13;;;5.10;;
32038;SDS011;18549;42.286;22.688;2023-05-07T06:34:52;9.07;;;4.80;;
32038;SDS011;18549;42.286;22.688;2023-05-07T06:37:21;8.07;;;5.12;;
32038;SDS011;18549;42.286;22.688;2023-05-07T06:39:49;6.30;;;5.30;;
32038;SDS011;18549;42.286;22.688;2023-05-07T06:42:16;6.45;;;4.87;;
32038;SDS011;18549;42.286;22.688;2023-05-07T06:44:44;8.10;;;5.40;;
32038;SDS011;18549;42.286;22.688;2023-05-07T06:47:10;6.13;;;4.63;;
32038;SDS011;18549;42.286;22.688;2023-05-07T06:49:37;10.65;;;4.25;;
32038;SDS011;18549;42.286;22.688;2023-05-07T06:52:05;7.07;;;4.97;;
32038;SDS011;18549;42.286;22.688;2023-05-07T06:54:32;11.27;;;5.17;;
32038;SDS011;18549;42.286;22.688;2023-05-07T06:57:00;6.20;;;4.67;;
32038;SDS011;18549;42.286;22.688;2023-05-07T06:59:27;6.60;;;5.13;;
32038;SDS011;18549;42.286;22.688;2023-05-07T07:01:53;9.80;;;5.62;;
32038;SDS011;18549;42.286;22.688;2023-05-07T07:04:21;7.27;;;5.63;;
32038;SDS011;18549;42.286;22.688;2023-05-07T07:06:49;7.30;;;6.23;;
32038;SDS011;18549;42.286;22.688;2023-05-07T07:09:19;7.45;;;5.60;;
32038;SDS011;18549;42.286;22.688;2023-05-07T07:11:47;8.00;;;4.97;;
32038;SDS011;18549;42.286;22.688;2023-05-07T07:14:13;5.15;;;4.65;;
32038;SDS011;18549;42.286;22.688;2023-05-07T07:16:41;11.03;;;4.70;;
32038;SDS011;18549;42.286;22.688;2023-05-07T07:19:08;7.82;;;4.18;;
32038;SDS011;18549;42.286;22.688;2023-05-07T07:21:35;9.88;;;5.40;;
32038;SDS011;18549;42.286;22.688;2023-05-07T07:24:03;6.62;;;4.43;;
32038;SDS011;18549;42.286;22.688;2023-05-07T07:26:34;6.30;;;4.30;;
32038;SDS011;18549;42.286;22.688;2023-05-07T07:29:01;11.77;;;5.57;;
32038;SDS011;18549;42.286;22.688;2023-05-07T07:31:29;7.95;;;4.37;;
32038;SDS011;18549;42.286;22.688;2023-05-07T07:33:57;5.40;;;4.33;;
32038;SDS011;18549;42.286;22.688;2023-05-07T07:36:24;8.18;;;5.32;;
32038;SDS011;18549;42.286;22.688;2023-05-07T07:38:53;8.30;;;4.93;;
32038;SDS011;18549;42.286;22.688;2023-05-07T07:41:20;7.22;;;4.53;;
32038;SDS011;18549;42.286;22.688;2023-05-07T07:43:48;6.18;;;4.25;;
32038;SDS011;18549;42.286;22.688;2023-05-07T07:46:16;6.62;;;4.22;;
32038;SDS011;18549;42.286;22.688;2023-05-07T07:48:43;7.45;;;4.53;;
32038;SDS011;18549;42.286;22.688;2023-05-07T07:51:10;5.25;;;4.75;;
32038;SDS011;18549;42.286;22.688;2023-05-07T07:53:37;6.47;;;4.47;;
32038;SDS011;18549;42.286;22.688;2023-05-07T07:56:04;10.35;;;5.07;;
32038;SDS011;18549;42.286;22.688;2023-05-07T07:58:32;8.85;;;4.28;;
32038;SDS011;18549;42.286;22.688;2023-05-07T08:01:02;7.45;;;5.85;;
32038;SDS011;18549;42.286;22.688;2023-05-07T08:03:29;7.05;;;4.97;;
32038;SDS011;18549;42.286;22.688;2023-05-07T08:05:57;9.20;;;4.50;;
32038;SDS011;18549;42.286;22.688;2023-05-07T08:08:24;6.50;;;4.65;;
32038;SDS011;18549;42.286;22.688;2023-05-07T08:10:51;7.53;;;4.62;;
32038;SDS011;18549;42.286;22.688;2023-05-07T08:13:18;5.97;;;4.37;;
32038;SDS011;18549;42.286;22.688;2023-05-07T08:15:45;11.97;;;4.93;;
32038;SDS011;18549;42.286;22.688;2023-05-07T08:18:13;7.07;;;4.12;;
32038;SDS011;18549;42.286;22.688;2023-05-07T08:20:43;9.18;;;3.90;;
32038;SDS011;18549;42.286;22.688;2023-05-07T08:23:13;6.30;;;4.07;;
32038;SDS011;18549;42.286;22.688;2023-05-07T08:25:40;9.40;;;4.60;;
32038;SDS011;18549;42.286;22.688;2023-05-07T08:28:09;12.80;;;5.12;;
32038;SDS011;18549;42.286;22.688;2023-05-07T08:30:36;6.12;;;3.80;;
32038;SDS011;18549;42.286;22.688;2023-05-07T08:33:03;5.95;;;4.72;;
32038;SDS011;18549;42.286;22.688;2023-05-07T08:35:32;5.82;;;4.70;;
32038;SDS011;18549;42.286;22.688;2023-05-07T08:37:59;58.80;;;9.50;;
32038;SDS011;18549;42.286;22.688;2023-05-07T08:40:26;8.13;;;4.87;;
32038;SDS011;18549;42.286;22.688;2023-05-07T08:42:54;6.50;;;3.80;;
32038;SDS011;18549;42.286;22.688;2023-05-07T08:45:23;6.75;;;4.07;;
32038;SDS011;18549;42.286;22.688;2023-05-07T08:47:55;8.93;;;4.43;;
32038;SDS011;18549;42.286;22.688;2023-05-07T08:50:26;8.75;;;4.28;;
32038;SDS011;18549;42.286;22.688;2023-05-07T08:52:55;9.65;;;4.57;;
32038;SDS011;18549;42.286;22.688;2023-05-07T08:55:25;6.97;;;4.25;;
32038;SDS011;18549;42.286;22.688;2023-05-07T08:57:55;6.90;;;3.83;;
32038;SDS011;18549;42.286;22.688;2023-05-07T09:00:25;7.50;;;4.53;;
32038;SDS011;18549;42.286;22.688;2023-05-07T09:02:55;6.72;;;4.47;;
32038;SDS011;18549;42.286;22.688;2023-05-07T09:05:22;6.03;;;3.53;;
32038;SDS011;18549;42.286;22.688;2023-05-07T09:07:49;4.83;;;3.87;;
32038;SDS011;18549;42.286;22.688;2023-05-07T09:10:19;16.87;;;4.32;;
32038;SDS011;18549;42.286;22.688;2023-05-07T09:12:47;9.77;;;3.83;;
32038;SDS011;18549;42.286;22.688;2023-05-07T09:15:15;7.65;;;3.28;;
32038;SDS011;18549;42.286;22.688;2023-05-07T09:17:43;3.70;;;3.40;;
32038;SDS011;18549;42.286;22.688;2023-05-07T09:20:10;6.32;;;3.35;;
32038;SDS011;18549;42.286;22.688;2023-05-07T09:22:39;5.62;;;3.42;;
32038;SDS011;18549;42.286;22.688;2023-05-07T09:25:06;12.55;;;4.35;;
32038;SDS011;18549;42.286;22.688;2023-05-07T09:27:36;3.70;;;3.33;;
32038;SDS011;18549;42.286;22.688;2023-05-07T09:30:03;6.15;;;4.60;;
32038;SDS011;18549;42.286;22.688;2023-05-07T09:32:33;11.07;;;4.43;;
32038;SDS011;18549;42.286;22.688;2023-05-07T09:35:03;6.28;;;3.85;;
32038;SDS011;18549;42.286;22.688;2023-05-07T09:37:30;3.78;;;3.28;;
32038;SDS011;18549;42.286;22.688;2023-05-07T09:39:59;11.80;;;3.60;;
32038;SDS011;18549;42.286;22.688;2023-05-07T09:42:28;5.68;;;3.78;;
32038;SDS011;18549;42.286;22.688;2023-05-07T09:45:02;4.93;;;4.40;;
32038;SDS011;18549;42.286;22.688;2023-05-07T09:47:32;5.82;;;4.05;;
32038;SDS011;18549;42.286;22.688;2023-05-07T09:50:04;7.03;;;4.10;;
32038;SDS011;18549;42.286;22.688;2023-05-07T09:52:35;5.72;;;4.12;;
32038;SDS011;18549;42.286;22.688;2023-05-07T09:55:05;10.48;;;4.25;;
32038;SDS011;18549;42.286;22.688;2023-05-07T09:57:34;6.12;;;4.70;;
32038;SDS011;18549;42.286;22.688;2023-05-07T10:00:04;9.50;;;3.70;;
32038;SDS011;18549;42.286;22.688;2023-05-07T10:02:33;6.60;;;4.28;;
32038;SDS011;18549;42.286;22.688;2023-05-07T10:05:05;9.90;;;3.60;;
32038;SDS011;18549;42.286;22.688;2023-05-07T10:07:32;4.60;;;3.67;;
32038;SDS011;18549;42.286;22.688;2023-05-07T10:10:00;3.37;;;2.62;;
32038;SDS011;18549;42.286;22.688;2023-05-07T10:12:29;6.07;;;3.30;;
32038;SDS011;18549;42.286;22.688;2023-05-07T10:15:04;3.47;;;3.17;;
32038;SDS011;18549;42.286;22.688;2023-05-07T10:17:33;3.85;;;3.10;;
32038;SDS011;18549;42.286;22.688;2023-05-07T10:20:02;5.35;;;3.80;;
32038;SDS011;18549;42.286;22.688;2023-05-07T10:22:29;3.42;;;2.80;;
32038;SDS011;18549;42.286;22.688;2023-05-07T10:24:58;3.35;;;2.83;;
32038;SDS011;18549;42.286;22.688;2023-05-07T10:27:29;5.90;;;2.70;;
32038;SDS011;18549;42.286;22.688;2023-05-07T10:29:58;4.85;;;2.60;;
32038;SDS011;18549;42.286;22.688;2023-05-07T10:32:42;3.62;;;3.00;;
32038;SDS011;18549;42.286;22.688;2023-05-07T10:35:14;3.08;;;2.33;;
32038;SDS011;18549;42.286;22.688;2023-05-07T10:37:43;6.05;;;2.80;;
32038;SDS011;18549;42.286;22.688;2023-05-07T10:40:12;10.23;;;3.08;;
32038;SDS011;18549;42.286;22.688;2023-05-07T10:42:50;7.30;;;3.25;;
32038;SDS011;18549;42.286;22.688;2023-05-07T10:45:22;4.93;;;3.20;;
32038;SDS011;18549;42.286;22.688;2023-05-07T10:50:45;5.72;;;4.10;;
32038;SDS011;18549;42.286;22.688;2023-05-07T10:53:22;6.50;;;3.30;;
32038;SDS011;18549;42.286;22.688;2023-05-07T10:58:54;3.67;;;3.17;;
32038;SDS011;18549;42.286;22.688;2023-05-07T11:04:20;5.07;;;3.28;;
32038;SDS011;18549;42.286;22.688;2023-05-07T11:10:02;3.60;;;2.75;;
32038;SDS011;18549;42.286;22.688;2023-05-07T11:12:46;6.97;;;2.87;;
32038;SDS011;18549;42.286;22.688;2023-05-07T11:15:34;3.72;;;3.25;;
32038;SDS011;18549;42.286;22.688;2023-05-07T11:18:12;6.15;;;3.47;;
32038;SDS011;18549;42.286;22.688;2023-05-07T11:20:54;2.83;;;2.42;;
32038;SDS011;18549;42.286;22.688;2023-05-07T11:26:43;7.03;;;2.83;;
32038;SDS011;18549;42.286;22.688;2023-05-07T11:29:12;4.20;;;3.00;;
32038;SDS011;18549;42.286;22.688;2023-05-07T11:31:41;3.87;;;3.17;;
32038;SDS011;18549;42.286;22.688;2023-05-07T11:34:09;4.25;;;2.75;;
32038;SDS011;18549;42.286;22.688;2023-05-07T11:36:42;4.93;;;2.90;;
32038;SDS011;18549;42.286;22.688;2023-05-07T11:39:23;4.68;;;3.12;;
32038;SDS011;18549;42.286;22.688;2023-05-07T11:41:52;4.95;;;3.40;;
32038;SDS011;18549;42.286;22.688;2023-05-07T11:44:18;4.37;;;3.37;;
32038;SDS011;18549;42.286;22.688;2023-05-07T11:46:46;4.15;;;3.35;;
32038;SDS011;18549;42.286;22.688;2023-05-07T11:49:13;3.92;;;3.30;;
32038;SDS011;18549;42.286;22.688;2023-05-07T11:51:43;6.85;;;3.20;;
32038;SDS011;18549;42.286;22.688;2023-05-07T11:54:11;3.60;;;2.97;;
32038;SDS011;18549;42.286;22.688;2023-05-07T11:56:43;4.22;;;3.67;;
32038;SDS011;18549;42.286;22.688;2023-05-07T11:59:16;7.05;;;2.97;;
32038;SDS011;18549;42.286;22.688;2023-05-07T12:01:45;5.18;;;3.35;;
32038;SDS011;18549;42.286;22.688;2023-05-07T12:04:13;3.75;;;2.92;;
32038;SDS011;18549;42.286;22.688;2023-05-07T12:06:48;6.28;;;3.62;;
32038;SDS011;18549;42.286;22.688;2023-05-07T12:09:16;3.22;;;2.85;;
32038;SDS011;18549;42.286;22.688;2023-05-07T12:11:45;8.77;;;4.35;;
32038;SDS011;18549;42.286;22.688;2023-05-07T12:14:12;6.18;;;3.42;;
32038;SDS011;18549;42.286;22.688;2023-05-07T12:16:41;6.75;;;3.42;;
32038;SDS011;18549;42.286;22.688;2023-05-07T12:19:09;4.55;;;3.17;;
32038;SDS011;18549;42.286;22.688;2023-05-07T12:21:37;7.00;;;3.20;;
32038;SDS011;18549;42.286;22.688;2023-05-07T12:24:10;9.38;;;3.37;;
32038;SDS011;18549;42.286;22.688;2023-05-07T12:26:39;3.50;;;3.03;;
32038;SDS011;18549;42.286;22.688;2023-05-07T12:29:07;3.10;;;2.80;;
32038;SDS011;18549;42.286;22.688;2023-05-07T12:31:34;5.05;;;2.58;;
32038;SDS011;18549;42.286;22.688;2023-05-07T12:34:02;5.82;;;3.30;;
32038;SDS011;18549;42.286;22.688;2023-05-07T12:36:36;2.97;;;2.67;;
32038;SDS011;18549;42.286;22.688;2023-05-07T12:39:04;4.50;;;3.25;;
32038;SDS011;18549;42.286;22.688;2023-05-07T12:41:34;3.75;;;3.08;;
32038;SDS011;18549;42.286;22.688;2023-05-07T12:44:03;7.15;;;3.05;;
32038;SDS011;18549;42.286;22.688;2023-05-07T12:46:31;6.28;;;3.22;;
32038;SDS011;18549;42.286;22.688;2023-05-07T12:48:58;3.10;;;2.80;;
32038;SDS011;18549;42.286;22.688;2023-05-07T12:51:25;3.53;;;2.50;;
32038;SDS011;18549;42.286;22.688;2023-05-07T12:53:55;3.92;;;3.53;;
32038;SDS011;18549;42.286;22.688;2023-05-07T12:56:24;7.47;;;2.72;;
32038;SDS011;18549;42.286;22.688;2023-05-07T12:58:56;5.72;;;3.67;;
32038;SDS011;18549;42.286;22.688;2023-05-07T13:01:28;3.47;;;3.17;;
32038;SDS011;18549;42.286;22.688;2023-05-07T13:04:00;4.40;;;3.10;;
32038;SDS011;18549;42.286;22.688;2023-05-07T13:06:27;3.55;;;3.08;;
32038;SDS011;18549;42.286;22.688;2023-05-07T13:08:54;4.35;;;3.12;;
32038;SDS011;18549;42.286;22.688;2023-05-07T13:11:21;4.18;;;3.33;;
32038;SDS011;18549;42.286;22.688;2023-05-07T13:13:50;3.92;;;3.42;;
32038;SDS011;18549;42.286;22.688;2023-05-07T13:16:18;5.65;;;3.37;;
32038;SDS011;18549;42.286;22.688;2023-05-07T13:18:45;3.53;;;2.92;;
32038;SDS011;18549;42.286;22.688;2023-05-07T13:21:14;3.90;;;3.47;;
32038;SDS011;18549;42.286;22.688;2023-05-07T13:23:41;4.93;;;3.00;;
32038;SDS011;18549;42.286;22.688;2023-05-07T13:26:08;8.10;;;3.12;;
32038;SDS011;18549;42.286;22.688;2023-05-07T13:28:36;6.28;;;3.00;;
32038;SDS011;18549;42.286;22.688;2023-05-07T13:31:05;2.95;;;2.67;;
32038;SDS011;18549;42.286;22.688;2023-05-07T13:33:33;7.85;;;3.47;;
32038;SDS011;18549;42.286;22.688;2023-05-07T13:36:02;6.93;;;3.35;;
32038;SDS011;18549;42.286;22.688;2023-05-07T13:38:30;3.83;;;2.87;;
32038;SDS011;18549;42.286;22.688;2023-05-07T13:40:57;3.12;;;2.83;;
32038;SDS011;18549;42.286;22.688;2023-05-07T13:43:25;5.10;;;2.95;;
32038;SDS011;18549;42.286;22.688;2023-05-07T13:45:55;5.03;;;3.42;;
32038;SDS011;18549;42.286;22.688;2023-05-07T13:48:24;5.07;;;3.53;;
32038;SDS011;18549;42.286;22.688;2023-05-07T13:50:51;5.97;;;4.12;;
32038;SDS011;18549;42.286;22.688;2023-05-07T13:53:17;4.67;;;3.70;;
32038;SDS011;18549;42.286;22.688;2023-05-07T13:55:44;4.72;;;3.45;;
32038;SDS011;18549;42.286;22.688;2023-05-07T13:58:11;8.57;;;3.80;;
32038;SDS011;18549;42.286;22.688;2023-05-07T14:00:40;10.25;;;4.35;;
32038;SDS011;18549;42.286;22.688;2023-05-07T14:03:07;7.93;;;3.78;;
32038;SDS011;18549;42.286;22.688;2023-05-07T14:05:36;6.18;;;4.20;;
32038;SDS011;18549;42.286;22.688;2023-05-07T14:08:03;5.68;;;3.80;;
32038;SDS011;18549;42.286;22.688;2023-05-07T14:10:34;10.40;;;4.00;;
32038;SDS011;18549;42.286;22.688;2023-05-07T14:13:01;6.90;;;3.42;;
32038;SDS011;18549;42.286;22.688;2023-05-07T14:15:28;4.00;;;3.03;;
32038;SDS011;18549;42.286;22.688;2023-05-07T14:17:55;4.25;;;2.65;;
32038;SDS011;18549;42.286;22.688;2023-05-07T14:20:24;5.72;;;2.70;;
32038;SDS011;18549;42.286;22.688;2023-05-07T14:22:54;6.95;;;3.17;;
32038;SDS011;18549;42.286;22.688;2023-05-07T14:25:22;6.90;;;3.70;;
32038;SDS011;18549;42.286;22.688;2023-05-07T14:27:48;6.78;;;4.25;;
32038;SDS011;18549;42.286;22.688;2023-05-07T14:30:15;6.05;;;4.25;;
32038;SDS011;18549;42.286;22.688;2023-05-07T14:32:43;9.32;;;3.75;;
32038;SDS011;18549;42.286;22.688;2023-05-07T14:35:10;7.03;;;3.85;;
32038;SDS011;18549;42.286;22.688;2023-05-07T14:37:37;10.77;;;3.62;;
32038;SDS011;18549;42.286;22.688;2023-05-07T14:40:09;8.07;;;3.75;;
32038;SDS011;18549;42.286;22.688;2023-05-07T14:42:39;5.60;;;4.03;;
32038;SDS011;18549;42.286;22.688;2023-05-07T14:45:07;4.50;;;3.35;;
32038;SDS011;18549;42.286;22.688;2023-05-07T14:47:35;3.53;;;3.00;;
32038;SDS011;18549;42.286;22.688;2023-05-07T14:50:02;6.32;;;2.92;;
32038;SDS011;18549;42.286;22.688;2023-05-07T14:52:29;10.60;;;3.92;;